Time;durP1;ratioP1;P1;durP2;ratioP2;P2;SDS_P1;SDS_P2;PMS_P1;PMS_P2;Temp;Humidity;BMP_temperature;BMP_pressure;BME280_temperature;BME280_humidity;BME280_pressure;Samples;Min_cycle;Max_cycle;Signal;HPM_P1;HPM_P2
2022/12/14 00:01:42;;;;;;;64.10;21.25;;;-3.60;99.90;;;;;;4699334;30;20413;-77
2022/12/14 00:04:15;;;;;;;54.50;18.40;;;-3.60;99.90;;;;;;4707614;30;20111;-77
2022/12/14 00:06:42;;;;;;;55.83;17.90;;;-3.60;99.90;;;;;;4704297;30;20045;-78
2022/12/14 00:09:09;;;;;;;40.10;15.70;;;-3.80;99.90;;;;;;4700645;30;20110;-77
2022/12/14 00:11:36;;;;;;;47.75;17.23;;;-3.50;99.90;;;;;;4716458;30;20103;-77
2022/12/14 00:14:04;;;;;;;43.30;15.30;;;-3.70;99.90;;;;;;4717228;30;20045;-77
2022/12/14 00:16:33;;;;;;;51.08;18.38;;;-3.40;99.90;;;;;;4714917;30;20105;-77
2022/12/14 00:19:01;;;;;;;38.67;13.48;;;-3.70;99.90;;;;;;4700828;30;20049;-77
2022/12/14 00:21:28;;;;;;;43.10;14.43;;;-3.70;99.90;;;;;;4703902;30;20053;-77
2022/12/14 00:23:57;;;;;;;47.45;14.45;;;-3.20;99.90;;;;;;4719425;30;20052;-77
2022/12/14 00:26:27;;;;;;;48.17;16.65;;;-3.80;99.90;;;;;;4699819;30;20425;-77
2022/12/14 00:28:56;;;;;;;47.05;14.73;;;-3.70;99.90;;;;;;4702481;30;20083;-77
2022/12/14 00:31:24;;;;;;;46.35;14.93;;;-3.70;99.90;;;;;;4698537;30;20448;-77
2022/12/14 00:33:51;;;;;;;44.38;13.63;;;-3.70;99.90;;;;;;4690029;30;20137;-77
2022/12/14 00:36:19;;;;;;;34.03;13.00;;;-3.80;99.90;;;;;;4717185;30;20059;-77
2022/12/14 00:38:46;;;;;;;42.42;14.38;;;-3.70;99.90;;;;;;4702000;30;20129;-77
2022/12/14 00:41:13;;;;;;;44.97;14.13;;;-3.70;99.90;;;;;;4712600;30;20057;-77
2022/12/14 00:43:41;;;;;;;36.95;12.75;;;-3.80;99.90;;;;;;4708371;30;20050;-77
2022/12/14 00:46:08;;;;;;;41.88;13.07;;;-3.70;99.90;;;;;;4711537;30;20426;-77
2022/12/14 00:48:35;;;;;;;46.88;15.60;;;-3.70;99.90;;;;;;4715794;30;20465;-77
2022/12/14 00:51:02;;;;;;;44.85;14.25;;;-3.20;99.90;;;;;;4703577;30;20418;-77
2022/12/14 00:53:30;;;;;;;32.50;11.85;;;-3.70;99.90;;;;;;4689124;30;20099;-77
2022/12/14 00:56:05;;;;;;;43.08;14.82;;;-3.70;99.90;;;;;;4706223;30;20049;-77
2022/12/14 00:58:32;;;;;;;40.63;13.05;;;-3.60;99.90;;;;;;4700594;30;20133;-78
2022/12/14 01:01:11;;;;;;;32.88;10.10;;;-3.70;99.90;;;;;;4701961;30;20083;-77
2022/12/14 01:03:38;;;;;;;31.50;10.70;;;-3.60;99.90;;;;;;4684258;30;20053;-77
2022/12/14 01:06:11;;;;;;;43.42;12.98;;;-3.50;99.90;;;;;;4710566;30;20577;-77
2022/12/14 01:08:39;;;;;;;41.65;12.35;;;-3.50;99.90;;;;;;4702920;30;20041;-77
2022/12/14 01:11:07;;;;;;;40.15;13.15;;;-3.50;99.90;;;;;;4702173;30;20053;-77
2022/12/14 01:13:36;;;;;;;46.08;14.27;;;-3.50;99.90;;;;;;4701151;30;20053;-77
2022/12/14 01:16:12;;;;;;;42.20;12.80;;;-3.50;99.90;;;;;;4716896;30;20053;-77
2022/12/14 01:18:42;;;;;;;41.42;12.43;;;-3.50;99.90;;;;;;4699592;30;20633;-77
2022/12/14 01:21:21;;;;;;;45.38;13.57;;;-3.40;99.90;;;;;;4708672;30;20061;-77
2022/12/14 01:23:56;;;;;;;40.58;13.00;;;-3.40;99.90;;;;;;4715304;30;20057;-77
2022/12/14 01:26:24;;;;;;;45.47;15.18;;;-3.30;99.90;;;;;;4714697;30;20067;-77
2022/12/14 01:28:56;;;;;;;31.55;12.05;;;-3.30;99.90;;;;;;4715162;30;20055;-77
2022/12/14 01:31:35;;;;;;;37.50;11.45;;;-3.30;99.90;;;;;;4704544;30;20065;-77
2022/12/14 01:34:02;;;;;;;45.08;13.98;;;-3.20;99.90;;;;;;4688071;30;20053;-77
2022/12/14 01:36:32;;;;;;;35.53;10.23;;;-3.20;99.90;;;;;;4718785;30;20097;-77
2022/12/14 01:39:03;;;;;;;39.90;12.15;;;-3.20;99.90;;;;;;4708229;30;20417;-77
2022/12/14 01:41:35;;;;;;;33.60;11.77;;;-3.20;99.90;;;;;;4710708;30;20068;-77
2022/12/14 01:44:22;;;;;;;39.90;11.73;;;-3.20;99.90;;;;;;4709872;30;20056;-78
2022/12/14 01:46:52;;;;;;;31.23;11.32;;;-3.20;99.90;;;;;;4706716;30;20064;-78
2022/12/14 01:49:35;;;;;;;33.72;11.20;;;-3.20;99.90;;;;;;4701182;30;20076;-78
2022/12/14 01:52:34;;;;;;;34.33;11.27;;;-3.10;99.90;;;;;;4715891;30;20049;-78
2022/12/14 01:55:23;;;;;;;43.65;12.68;;;-3.10;99.90;;;;;;4700356;30;20053;-78
2022/12/14 01:57:59;;;;;;;37.83;11.63;;;-3.10;99.90;;;;;;4720572;30;20057;-78
2022/12/14 02:00:26;;;;;;;37.05;10.75;;;-3.10;99.90;;;;;;4714343;30;20178;-77
2022/12/14 02:03:11;;;;;;;44.15;12.52;;;-3.10;99.90;;;;;;4709302;30;20057;-78
2022/12/14 02:05:42;;;;;;;43.00;13.93;;;-3.10;99.90;;;;;;4721838;30;20045;-78
2022/12/14 02:08:10;;;;;;;41.58;12.23;;;-3.50;99.90;;;;;;4711921;30;20057;-77
2022/12/14 02:10:37;;;;;;;38.15;11.70;;;-3.00;99.90;;;;;;4700989;30;20045;-77
2022/12/14 02:13:15;;;;;;;36.22;10.75;;;-2.80;99.90;;;;;;4701120;30;20064;-77
2022/12/14 02:15:43;;;;;;;36.72;12.70;;;-3.00;99.90;;;;;;4716487;30;20045;-77
2022/12/14 02:18:18;;;;;;;42.40;12.70;;;-3.00;99.90;;;;;;4717146;30;20441;-77
2022/12/14 02:21:21;;;;;;;35.50;11.82;;;-2.90;99.90;;;;;;4717833;30;20045;-78
2022/12/14 02:24:07;;;;;;;34.72;12.18;;;-3.00;99.90;;;;;;4714824;30;20074;-77
2022/12/14 02:27:18;;;;;;;42.05;12.27;;;-2.90;99.90;;;;;;4718061;30;20053;-78
2022/12/14 02:29:45;;;;;;;31.83;9.80;;;-2.90;99.90;;;;;;4656285;30;20542;-77
2022/12/14 02:32:36;;;;;;;35.00;11.52;;;-2.90;99.90;;;;;;4707905;30;20057;-78
2022/12/14 02:35:26;;;;;;;35.88;11.40;;;-2.90;99.90;;;;;;4700619;30;20069;-78
2022/12/14 02:38:03;;;;;;;39.53;10.75;;;-2.90;99.90;;;;;;4716845;30;20164;-77
2022/12/14 02:40:42;;;;;;;35.40;11.38;;;-2.90;99.90;;;;;;4706448;30;20045;-78
2022/12/14 02:43:21;;;;;;;36.97;11.43;;;-2.90;99.90;;;;;;4717770;30;20056;-77
2022/12/14 02:45:57;;;;;;;32.25;11.13;;;-2.90;99.90;;;;;;4719991;30;20106;-78
2022/12/14 02:48:31;;;;;;;26.05;9.95;;;-2.90;99.90;;;;;;4706400;30;20053;-78
2022/12/14 02:51:21;;;;;;;40.55;12.00;;;-2.90;99.90;;;;;;4717280;30;20045;-78
2022/12/14 02:53:59;;;;;;;37.67;12.57;;;-2.90;99.90;;;;;;4714232;30;20053;-78
2022/12/14 02:56:36;;;;;;;50.50;14.75;;;-2.70;99.90;;;;;;4701565;30;20439;-78
2022/12/14 02:59:07;;;;;;;35.97;11.73;;;-2.90;99.90;;;;;;4717338;30;20053;-78
2022/12/14 03:01:36;;;;;;;41.45;13.90;;;-2.90;99.90;;;;;;4698270;30;20057;-78
2022/12/14 03:04:05;;;;;;;48.92;13.63;;;-2.90;99.90;;;;;;4716408;30;20060;-78
2022/12/14 03:06:32;;;;;;;44.60;13.43;;;-2.80;99.90;;;;;;4715922;30;20502;-78
2022/12/14 03:09:03;;;;;;;44.53;13.82;;;-2.80;99.90;;;;;;4720975;30;20139;-78
2022/12/14 03:11:41;;;;;;;48.38;13.95;;;-2.80;99.90;;;;;;4704990;30;20052;-78
2022/12/14 03:14:16;;;;;;;45.63;12.85;;;-2.80;99.90;;;;;;4702572;30;20060;-78
2022/12/14 03:16:48;;;;;;;43.47;12.15;;;-2.80;99.90;;;;;;4715307;30;20037;-78
2022/12/14 03:19:39;;;;;;;48.33;14.65;;;-2.80;99.90;;;;;;4715060;30;20049;-78
2022/12/14 03:22:17;;;;;;;44.53;13.07;;;-2.80;99.90;;;;;;4689810;30;20060;-78
2022/12/14 03:24:53;;;;;;;46.22;13.40;;;-2.70;99.90;;;;;;4701442;30;20053;-78
2022/12/14 03:27:24;;;;;;;43.22;12.98;;;-2.70;99.90;;;;;;4701752;30;20522;-78
2022/12/14 03:30:07;;;;;;;37.20;12.02;;;-2.70;99.90;;;;;;4715529;30;20509;-78
2022/12/14 03:32:57;;;;;;;50.00;15.38;;;-2.70;99.90;;;;;;4717205;30;20124;-78
2022/12/14 03:35:48;;;;;;;49.22;14.68;;;-2.70;99.90;;;;;;4716216;30;20045;-77
2022/12/14 03:38:23;;;;;;;40.47;13.10;;;-2.70;99.90;;;;;;4717423;30;20060;-77
2022/12/14 03:41:25;;;;;;;38.97;12.65;;;-2.70;99.90;;;;;;4713252;30;20049;-78
2022/12/14 03:43:59;;;;;;;35.58;10.70;;;-2.70;99.90;;;;;;4715236;30;20064;-78
2022/12/14 03:46:45;;;;;;;48.15;14.40;;;-2.70;99.90;;;;;;4699730;30;20528;-79
2022/12/14 03:49:20;;;;;;;38.50;15.18;;;-2.70;99.90;;;;;;4710152;30;20053;-78
2022/12/14 03:52:02;;;;;;;41.78;14.70;;;-2.70;99.90;;;;;;4714410;30;20548;-78
2022/12/14 03:54:57;;;;;;;28.92;10.25;;;-2.60;99.90;;;;;;4714615;30;20115;-78
2022/12/14 03:57:39;;;;;;;40.08;13.57;;;-2.60;99.90;;;;;;4699758;30;20057;-78
2022/12/14 04:00:09;;;;;;;37.30;12.45;;;-2.60;99.90;;;;;;4685852;30;20071;-78
2022/12/14 04:02:39;;;;;;;;;;;-2.60;99.90;;;;;;4718293;30;20072;-78
2022/12/14 04:05:32;;;;;;;33.50;11.55;;;-2.60;99.90;;;;;;4688385;30;19934;-78
2022/12/14 04:08:16;;;;;;;39.17;12.73;;;-2.60;99.90;;;;;;4699073;30;20102;-78
2022/12/14 04:20:15;;;;;;;47.75;14.63;;;-2.60;99.90;;;;;;4716749;30;20058;-77
2022/12/14 04:22:52;;;;;;;21.00;8.48;;;-2.60;99.90;;;;;;4696599;30;20111;-78
2022/12/14 04:31:14;;;;;;;29.63;9.40;;;-2.60;99.90;;;;;;4717121;30;20053;-78
2022/12/14 04:33:48;;;;;;;25.70;8.52;;;-2.50;99.90;;;;;;4703738;30;20073;-78
2022/12/14 04:36:37;;;;;;;38.85;12.95;;;-2.50;99.90;;;;;;4716684;30;20057;-78
2022/12/14 04:39:07;;;;;;;37.38;10.45;;;-2.50;99.90;;;;;;4721215;30;20410;-78
2022/12/14 04:41:41;;;;;;;36.55;11.80;;;-2.50;99.90;;;;;;4698573;30;20056;-78
2022/12/14 04:44:31;;;;;;;32.47;11.05;;;-2.50;99.90;;;;;;4715045;30;20049;-79
2022/12/14 04:47:00;;;;;;;38.95;11.90;;;-2.50;99.90;;;;;;4706956;30;20513;-79
2022/12/14 04:49:39;;;;;;;37.25;11.75;;;-2.50;99.90;;;;;;4698726;30;20446;-79
2022/12/14 04:52:40;;;;;;;40.78;15.43;;;-2.50;99.90;;;;;;4716520;30;20049;-79
2022/12/14 04:55:16;;;;;;;23.20;8.80;;;-2.50;99.90;;;;;;4714669;30;20060;-79
2022/12/14 04:57:55;;;;;;;29.17;10.05;;;-2.50;99.90;;;;;;4715370;30;20517;-79
2022/12/14 05:00:23;;;;;;;43.63;13.75;;;-2.50;99.90;;;;;;4714429;30;20080;-78
2022/12/14 05:03:19;;;;;;;16.42;5.53;;;-2.40;99.90;;;;;;4715849;30;20053;-78
2022/12/14 05:05:57;;;;;;;41.10;14.05;;;-2.40;99.90;;;;;;4699954;30;20506;-79
2022/12/14 05:08:25;;;;;;;21.02;8.95;;;-2.40;99.90;;;;;;4701460;30;20080;-79
2022/12/14 05:11:00;;;;;;;35.40;12.43;;;-2.40;99.90;;;;;;4695722;30;20045;-79
2022/12/14 05:13:49;;;;;;;26.98;9.82;;;-2.40;99.90;;;;;;4701981;30;20100;-79
2022/12/14 05:16:19;;;;;;;23.00;9.23;;;-2.40;99.90;;;;;;4713042;30;20052;-79
2022/12/14 05:18:47;;;;;;;32.58;10.07;;;-2.30;99.90;;;;;;4701790;30;20131;-79
2022/12/14 05:24:02;;;;;;;25.30;10.20;;;-2.30;99.90;;;;;;4689851;30;20060;-79
2022/12/14 05:26:30;;;;;;;28.63;9.10;;;-2.30;99.90;;;;;;4715379;30;20056;-79
2022/12/14 05:29:05;;;;;;;35.00;12.45;;;-2.30;99.90;;;;;;4701535;30;20045;-79
2022/12/14 05:31:36;;;;;;;32.13;10.02;;;-2.30;99.90;;;;;;4716404;30;20049;-79
2022/12/14 05:34:06;;;;;;;;;;;-2.30;99.90;;;;;;4716793;30;20114;-79
2022/12/14 05:36:34;;;;;;;29.90;11.15;;;-2.30;99.90;;;;;;4701242;30;20379;-79
2022/12/14 05:39:01;;;;;;;26.20;8.43;;;-2.20;99.90;;;;;;4697316;30;20057;-79
2022/12/14 05:41:28;;;;;;;12.00;4.82;;;-2.30;99.90;;;;;;4686915;30;20041;-79
2022/12/14 05:43:55;;;;;;;24.15;9.10;;;-2.30;99.90;;;;;;4715763;30;20049;-79
2022/12/14 05:46:22;;;;;;;15.27;5.20;;;-2.20;99.90;;;;;;4712580;30;20812;-79
2022/12/14 05:48:49;;;;;;;10.88;5.05;;;-2.20;99.90;;;;;;4720010;30;21104;-79
2022/12/14 05:51:17;;;;;;;16.50;6.53;;;-2.20;99.90;;;;;;4699131;30;20068;-79
2022/12/14 05:53:44;;;;;;;31.27;9.88;;;-2.20;99.90;;;;;;4707859;30;20057;-78
2022/12/14 05:56:11;;;;;;;22.20;7.53;;;-2.30;99.90;;;;;;4717398;30;20125;-79
2022/12/14 05:58:39;;;;;;;21.23;8.63;;;-2.20;99.90;;;;;;4708162;30;20099;-79
2022/12/14 06:01:09;;;;;;;25.83;9.20;;;-2.20;99.90;;;;;;4721680;30;20045;-78
2022/12/14 06:03:44;;;;;;;21.45;8.23;;;-2.20;99.90;;;;;;4714714;30;20060;-79
2022/12/14 06:06:16;;;;;;;27.70;8.65;;;-2.20;99.90;;;;;;4703215;30;20056;-79
2022/12/14 06:08:45;;;;;;;24.50;9.10;;;-2.20;99.90;;;;;;4698364;30;20057;-79
2022/12/14 06:11:15;;;;;;;26.20;10.52;;;-2.20;99.90;;;;;;4697999;30;20302;-79
2022/12/14 06:13:42;;;;;;;15.75;6.32;;;-2.20;99.90;;;;;;4683241;30;20080;-79
2022/12/14 06:16:15;;;;;;;27.58;9.65;;;-2.20;99.90;;;;;;4719532;30;20049;-79
2022/12/14 06:18:50;;;;;;;29.40;10.98;;;-2.20;99.90;;;;;;4704597;30;20053;-79
2022/12/14 06:21:20;;;;;;;17.02;6.65;;;-2.20;99.90;;;;;;4707685;30;20088;-79
2022/12/14 06:23:49;;;;;;;29.10;10.43;;;-2.20;99.90;;;;;;4701086;30;20140;-79
2022/12/14 06:26:17;;;;;;;18.67;7.68;;;-2.20;99.90;;;;;;4717510;30;20184;-79
2022/12/14 06:28:44;;;;;;;19.83;8.57;;;-2.20;99.90;;;;;;4702444;30;20152;-79
2022/12/14 06:31:24;;;;;;;12.95;5.35;;;-2.20;99.90;;;;;;4703855;30;20053;-79
2022/12/14 06:33:53;;;;;;;26.15;10.05;;;-2.20;99.90;;;;;;4716333;30;20502;-79
2022/12/14 06:36:28;;;;;;;19.40;7.68;;;-2.10;99.90;;;;;;4707017;30;20038;-79
2022/12/14 06:38:56;;;;;;;24.98;10.05;;;-2.20;99.90;;;;;;4717050;30;20058;-79
2022/12/14 06:41:23;;;;;;;20.30;6.15;;;-2.20;99.90;;;;;;4719068;30;20048;-79
2022/12/14 06:43:52;;;;;;;19.67;8.70;;;-2.10;99.90;;;;;;4724405;30;20044;-79
2022/12/14 06:46:21;;;;;;;18.73;8.13;;;-2.20;99.90;;;;;;4713883;30;20053;-79
2022/12/14 06:48:51;;;;;;;18.98;5.80;;;-2.10;99.90;;;;;;4685757;30;20049;-79
2022/12/14 06:51:20;;;;;;;14.70;6.25;;;-2.10;99.90;;;;;;4700404;30;20049;-79
2022/12/14 06:53:55;;;;;;;20.83;7.80;;;-2.10;99.90;;;;;;4699766;30;20045;-79
2022/12/14 06:56:24;;;;;;;22.60;8.68;;;-2.10;99.90;;;;;;4704289;30;20057;-79
2022/12/14 06:58:54;;;;;;;14.98;5.40;;;-2.00;99.90;;;;;;4702186;30;20137;-79
2022/12/14 07:08:36;;;;;;;12.63;4.35;;;-2.00;99.90;;;;;;5549676;24;20062;-80
2022/12/14 07:12:21;;;;;;;26.05;7.32;;;-2.20;99.90;;;;;;4987264;24;20112;31
2022/12/14 07:15:32;;;;;;;12.98;6.07;;;-2.00;99.90;;;;;;5201862;24;20899;-79
2022/12/14 07:18:20;;;;;;;12.52;5.10;;;-2.00;99.90;;;;;;5019260;24;20063;-80
2022/12/14 07:20:56;;;;;;;26.58;8.77;;;-2.00;99.90;;;;;;4771767;30;20064;-80
2022/12/14 07:39:51;;;;;;;13.48;4.43;;;-1.80;99.90;;;;;;4742024;24;20372;-79
2022/12/14 07:54:44;;;;;;;24.55;7.28;;;-1.80;99.90;;;;;;5096561;24;20059;-80
2022/12/14 07:57:41;;;;;;;13.00;5.63;;;-1.80;99.90;;;;;;4766449;24;20087;-80
2022/12/14 08:00:09;;;;;;;28.65;8.30;;;-1.80;99.90;;;;;;4878712;24;20031;-79
2022/12/14 08:02:41;;;;;;;23.25;8.32;;;-1.80;99.90;;;;;;4793359;24;20035;-80
2022/12/14 08:05:17;;;;;;;26.95;11.75;;;-1.80;99.90;;;;;;4761326;30;20056;-80
2022/12/14 08:07:47;;;;;;;25.80;8.73;;;-1.90;99.90;;;;;;4740706;30;20113;-80
2022/12/14 08:10:14;;;;;;;28.60;10.82;;;-3.00;99.90;;;;;;4743932;30;20060;-80
2022/12/14 08:12:52;;;;;;;28.40;10.32;;;-1.80;99.90;;;;;;4731313;30;20055;-80
2022/12/14 08:15:20;;;;;;;17.35;7.07;;;-1.70;99.90;;;;;;4717878;30;20054;-80
2022/12/14 08:17:48;;;;;;;35.03;11.40;;;-1.70;99.90;;;;;;4868126;24;20059;-79
2022/12/14 08:20:21;;;;;;;28.98;11.25;;;-2.10;99.90;;;;;;4804624;24;20070;-79
2022/12/14 08:23:02;;;;;;;32.85;9.73;;;-1.80;99.90;;;;;;4802740;24;20063;-80
2022/12/14 08:25:35;;;;;;;18.83;6.95;;;-1.70;99.90;;;;;;4762991;30;20055;-79
2022/12/14 08:28:08;;;;;;;23.85;7.68;;;-1.90;99.90;;;;;;4756464;30;20059;-79
2022/12/14 08:37:33;;;;;;;24.30;9.05;;;-1.70;99.90;;;;;;4777985;30;20044;-78
2022/12/14 08:40:22;;;;;;;26.38;9.60;;;-2.30;99.90;;;;;;4719204;30;20069;-78
2022/12/14 08:42:56;;;;;;;25.95;7.93;;;-1.70;99.90;;;;;;4695008;30;20057;-78
2022/12/14 08:45:53;;;;;;;30.88;12.10;;;-1.70;99.90;;;;;;4704845;30;20156;-78
2022/12/14 08:48:21;;;;;;;32.95;10.32;;;-1.80;99.90;;;;;;4858526;24;20076;-78
2022/12/14 08:50:52;;;;;;;24.90;6.88;;;-1.80;99.90;;;;;;4754958;30;20040;-78
2022/12/14 08:53:19;;;;;;;28.45;9.25;;;-1.60;99.90;;;;;;4743903;30;20108;-78
2022/12/14 08:55:47;;;;;;;29.50;8.30;;;-1.10;99.90;;;;;;4822287;24;20735;-78
2022/12/14 08:58:19;;;;;;;20.50;6.43;;;-1.50;99.90;;;;;;4932258;24;20493;-79
2022/12/14 09:00:49;;;;;;;20.27;7.32;;;-2.00;99.90;;;;;;4761905;24;20148;-79
2022/12/14 09:03:24;;;;;;;25.63;8.10;;;-1.50;99.90;;;;;;4739957;30;20101;-79
2022/12/14 09:06:03;;;;;;;22.08;8.43;;;-1.60;99.90;;;;;;4723802;30;20048;-79
2022/12/14 09:18:21;;;;;;;29.48;8.23;;;-1.40;99.90;;;;;;5035968;24;20056;-79
2022/12/14 09:24:19;;;;;;;23.17;8.63;;;-1.40;99.90;;;;;;4795482;24;20522;-79
2022/12/14 09:26:46;;;;;;;20.77;7.00;;;-1.60;99.90;;;;;;4744972;30;20501;-79
2022/12/14 09:29:23;;;;;;;32.58;9.48;;;-1.50;99.90;;;;;;5449607;24;20032;-78
2022/12/14 09:31:51;;;;;;;30.58;10.98;;;-1.90;99.90;;;;;;5131381;24;20060;-78
2022/12/14 09:34:24;;;;;;;19.02;6.38;;;-1.40;99.90;;;;;;4759652;30;20066;-78
2022/12/14 09:37:03;;;;;;;25.75;8.85;;;-1.40;99.90;;;;;;4844494;24;20052;-80
2022/12/14 09:39:32;;;;;;;22.35;8.40;;;-1.50;99.90;;;;;;5150207;24;20048;-79
2022/12/14 09:42:06;;;;;;;22.40;7.15;;;-1.20;99.90;;;;;;5125463;24;20128;-79
2022/12/14 09:45:02;;;;;;;28.60;9.02;;;-1.30;99.90;;;;;;4850334;24;20071;-79
2022/12/14 09:47:50;;;;;;;12.48;3.97;;;-1.50;99.90;;;;;;5095173;24;20045;31
2022/12/14 09:53:44;;;;;;;;;;;-1.50;99.90;;;;;;4785053;29;20039;-79
2022/12/14 09:56:16;;;;;;;12.35;4.03;;;-1.10;99.90;;;;;;4843464;24;19910;-79
2022/12/14 09:59:10;;;;;;;27.65;8.32;;;-1.20;99.90;;;;;;3732676;24;20501;-79
2022/12/14 10:01:45;;;;;;;26.73;9.70;;;-1.10;99.90;;;;;;4734384;29;20082;-79
2022/12/14 10:04:56;;;;;;;29.75;10.25;;;-1.20;99.90;;;;;;4715131;30;20388;-79
2022/12/14 10:07:35;;;;;;;29.20;9.45;;;-1.10;99.90;;;;;;4698575;30;20057;-79
2022/12/14 10:10:22;;;;;;;32.92;12.27;;;-1.10;99.90;;;;;;4699150;30;20084;-79
2022/12/14 10:13:01;;;;;;;33.13;10.18;;;-1.30;99.90;;;;;;4718127;30;20118;-79
2022/12/14 10:15:39;;;;;;;23.55;8.23;;;-1.30;99.90;;;;;;4705316;30;20059;-79
2022/12/14 10:18:32;;;;;;;20.92;8.25;;;-1.10;99.90;;;;;;4705358;30;20061;-79
2022/12/14 10:21:33;;;;;;;22.67;8.50;;;-1.10;99.90;;;;;;4720935;30;20406;-79
2022/12/14 10:24:03;;;;;;;21.23;6.75;;;-1.20;99.90;;;;;;4704100;30;20049;-79
2022/12/14 10:26:52;;;;;;;22.17;6.90;;;-1.10;99.90;;;;;;4684984;30;20176;-79
2022/12/14 10:29:34;;;;;;;24.75;9.13;;;-2.40;99.90;;;;;;4710496;30;20045;-79
2022/12/14 10:32:04;;;;;;;18.77;6.18;;;-1.40;99.90;;;;;;4690855;30;20053;-79
2022/12/14 10:34:33;;;;;;;11.50;5.90;;;-1.00;99.90;;;;;;4707270;30;20091;-79
2022/12/14 10:37:21;;;;;;;18.58;7.40;;;-1.00;99.90;;;;;;4692213;30;20041;-79
2022/12/14 10:40:09;;;;;;;23.92;6.80;;;-1.20;99.90;;;;;;4702468;30;20057;-79
2022/12/14 10:43:10;;;;;;;25.55;10.35;;;-0.90;99.90;;;;;;4714535;30;20056;-77
2022/12/14 10:45:58;;;;;;;33.50;11.35;;;-0.90;99.90;;;;;;4711769;30;20064;-79
2022/12/14 10:48:38;;;;;;;30.33;9.35;;;-1.00;99.90;;;;;;4690652;30;20057;-79
2022/12/14 10:51:32;;;;;;;20.10;7.53;;;-1.10;99.90;;;;;;4704518;30;20962;-79
2022/12/14 10:54:27;;;;;;;25.25;8.88;;;-1.20;99.90;;;;;;4703122;30;20053;-79
2022/12/14 10:56:54;;;;;;;26.08;9.23;;;-1.20;99.90;;;;;;4685289;30;20067;-79
2022/12/14 10:59:24;;;;;;;34.55;11.65;;;-1.10;99.90;;;;;;4709629;30;20136;-79
2022/12/14 11:02:07;;;;;;;28.92;10.73;;;-0.70;99.90;;;;;;4742112;30;23862;-79
2022/12/14 11:04:57;;;;;;;28.75;10.38;;;-0.70;99.90;;;;;;4729640;30;20105;-79
2022/12/14 11:07:32;;;;;;;16.15;6.20;;;-0.60;99.90;;;;;;4749575;30;20051;-79
2022/12/14 11:10:21;;;;;;;34.47;12.30;;;-1.30;99.90;;;;;;4737887;30;20052;-79
2022/12/14 11:13:13;;;;;;;25.27;9.35;;;-0.60;99.90;;;;;;4721174;30;20063;-79
2022/12/14 11:15:43;;;;;;;32.80;11.65;;;-0.60;99.90;;;;;;4731122;30;20114;-79
2022/12/14 11:18:16;;;;;;;25.88;9.07;;;-1.80;99.90;;;;;;4734005;30;20061;-79
2022/12/14 11:20:59;;;;;;;25.95;9.52;;;-0.50;99.90;;;;;;4732950;30;20048;-79
2022/12/14 11:23:39;;;;;;;33.38;11.68;;;-0.50;99.90;;;;;;4733972;30;20063;-79
2022/12/14 11:26:15;;;;;;;24.85;8.90;;;-0.40;99.90;;;;;;4739644;30;20064;-79
2022/12/14 11:28:47;;;;;;;14.88;5.13;;;-0.60;99.90;;;;;;4723261;30;20056;-79
2022/12/14 11:31:21;;;;;;;30.45;9.70;;;-0.90;99.90;;;;;;4733705;30;20048;-79
2022/12/14 11:33:50;;;;;;;;;;;-0.60;99.90;;;;;;4742844;30;20041;-79
2022/12/14 11:36:25;;;;;;;47.88;16.13;;;-0.60;99.90;;;;;;4734734;30;20306;-79
2022/12/14 11:38:58;;;;;;;34.00;13.60;;;-0.60;99.90;;;;;;4732042;30;20051;-79
2022/12/14 11:41:37;;;;;;;55.05;27.05;;;-0.60;99.90;;;;;;4737053;30;20068;-79
2022/12/14 11:44:30;;;;;;;37.58;15.93;;;-0.70;99.90;;;;;;4729752;30;20108;-79
2022/12/14 11:46:57;;;;;;;16.60;6.63;;;-0.60;99.90;;;;;;4715980;30;20061;-79
2022/12/14 11:49:25;;;;;;;15.85;7.25;;;-0.60;99.90;;;;;;4747085;30;20063;-79
2022/12/14 11:52:07;;;;;;;24.45;9.32;;;-0.60;99.90;;;;;;4737060;30;20155;-79
2022/12/14 11:54:38;;;;;;;17.38;8.02;;;-0.80;99.90;;;;;;4734472;30;20125;-79
2022/12/14 11:57:13;;;;;;;29.88;10.73;;;-0.60;99.90;;;;;;4717602;30;20104;-78
2022/12/14 12:00:00;;;;;;;29.52;12.27;;;-0.60;99.90;;;;;;4735427;30;20086;-79
2022/12/14 12:02:46;;;;;;;31.25;10.65;;;-0.60;99.90;;;;;;4733420;30;20053;-79
2022/12/14 12:05:18;;;;;;;28.35;10.75;;;-0.50;99.90;;;;;;4751298;30;20052;-79
2022/12/14 12:07:49;;;;;;;30.00;11.93;;;0.40;99.90;;;;;;4733896;30;20554;-79
2022/12/14 12:10:22;;;;;;;14.40;5.88;;;-0.50;99.90;;;;;;4735566;30;20121;-79
2022/12/14 12:12:59;;;;;;;28.40;11.50;;;-0.40;99.90;;;;;;4732169;30;20086;-79
2022/12/14 12:15:32;;;;;;;33.17;11.48;;;-0.10;99.90;;;;;;4712432;30;20048;-79
2022/12/14 12:18:41;;;;;;;34.30;10.93;;;-0.60;99.90;;;;;;4737674;30;20052;-77
2022/12/14 12:21:30;;;;;;;20.33;7.05;;;-0.70;99.90;;;;;;4722338;30;20119;-79
2022/12/14 12:24:24;;;;;;;28.05;10.10;;;-0.50;99.90;;;;;;4737800;30;20056;-79
2022/12/14 12:26:59;;;;;;;27.77;11.27;;;-0.70;99.90;;;;;;4731844;30;20106;-79
2022/12/14 12:29:57;;;;;;;21.67;7.10;;;-0.50;99.90;;;;;;4698887;30;20077;-79
2022/12/14 12:32:30;;;;;;;34.92;10.30;;;-0.40;99.90;;;;;;4696599;30;20148;-79
2022/12/14 12:35:06;;;;;;;13.57;5.05;;;-0.50;99.90;;;;;;4706923;30;20241;-79
2022/12/14 12:37:56;;;;;;;22.50;8.13;;;-0.60;99.90;;;;;;4701710;30;20134;-80
2022/12/14 12:40:32;;;;;;;25.02;9.25;;;-0.40;99.90;;;;;;4698599;30;20068;-79
2022/12/14 12:43:05;;;;;;;38.83;16.70;;;0.90;99.90;;;;;;4703433;30;20055;-79
2022/12/14 12:45:52;;;;;;;29.30;11.27;;;-0.40;99.90;;;;;;4684598;30;20049;-79
2022/12/14 12:48:28;;;;;;;20.75;8.48;;;-0.30;99.90;;;;;;4700243;30;20049;-79
2022/12/14 12:51:04;;;;;;;26.92;10.52;;;-0.30;99.90;;;;;;4709947;30;20076;-79
2022/12/14 12:53:56;;;;;;;31.92;10.07;;;-0.30;99.90;;;;;;4702639;30;20553;-79
2022/12/14 12:56:45;;;;;;;25.02;8.95;;;-0.40;99.90;;;;;;4701116;30;20068;-78
2022/12/14 12:59:52;;;;;;;24.77;9.25;;;-0.50;99.90;;;;;;4699658;30;20061;-79
2022/12/14 13:02:45;;;;;;;28.90;9.93;;;-0.60;99.90;;;;;;4699302;30;20045;-80
2022/12/14 13:05:26;;;;;;;19.27;7.43;;;-0.30;99.90;;;;;;4700249;30;20049;-79
2022/12/14 13:08:29;;;;;;;24.52;9.52;;;-0.50;99.90;;;;;;4732870;30;20052;-79
2022/12/14 13:11:13;;;;;;;22.23;8.52;;;-0.50;99.90;;;;;;4731686;30;20052;-79
2022/12/14 13:14:01;;;;;;;22.25;7.90;;;-0.30;99.90;;;;;;4739470;30;20052;-79
2022/12/14 13:16:35;;;;;;;26.52;10.40;;;-0.30;99.90;;;;;;4715637;30;20056;-79
2022/12/14 13:19:20;;;;;;;32.58;12.23;;;-0.50;99.90;;;;;;4732876;30;20476;-79
2022/12/14 13:22:16;;;;;;;15.43;7.05;;;0.80;99.90;;;;;;4737840;30;20049;-78
2022/12/14 13:24:50;;;;;;;20.80;7.82;;;-0.40;99.90;;;;;;4717753;30;20090;-79
2022/12/14 13:28:01;;;;;;;19.52;7.97;;;-0.20;99.90;;;;;;4741535;30;20063;-79
2022/12/14 13:30:40;;;;;;;65.55;18.15;;;-0.30;99.90;;;;;;4718730;30;20398;-79
2022/12/14 13:33:32;;;;;;;53.10;15.18;;;-0.30;99.90;;;;;;4732475;30;20465;-79
2022/12/14 13:36:38;;;;;;;53.67;14.30;;;-0.70;99.90;;;;;;4725444;30;20143;-78
2022/12/14 13:39:35;;;;;;;48.53;17.38;;;-0.30;99.90;;;;;;4698639;30;20559;-79
2022/12/14 13:42:25;;;;;;;35.05;12.77;;;-0.30;99.90;;;;;;4739001;30;20133;-79
2022/12/14 13:45:00;;;;;;;18.17;6.25;;;-0.30;99.90;;;;;;4745551;30;20057;-79
2022/12/14 13:47:42;;;;;;;24.63;11.18;;;-0.70;99.90;;;;;;4735783;30;20051;-79
2022/12/14 13:50:35;;;;;;;24.27;10.47;;;-1.10;99.90;;;;;;4713927;30;20076;-79
2022/12/14 13:53:22;;;;;;;20.20;6.88;;;-0.40;99.90;;;;;;4723499;30;20092;-78
2022/12/14 13:55:53;;;;;;;29.20;12.27;;;-0.40;99.90;;;;;;4730492;30;20138;-79
2022/12/14 13:58:41;;;;;;;17.13;7.55;;;-0.50;99.90;;;;;;4718368;30;20053;-79
2022/12/14 14:01:44;;;;;;;24.55;11.27;;;-0.30;99.90;;;;;;4740201;30;21666;-79
2022/12/14 14:04:23;;;;;;;16.30;5.63;;;-0.50;99.90;;;;;;4731846;30;20466;-79
2022/12/14 14:06:53;;;;;;;23.98;9.52;;;-1.40;99.90;;;;;;4729055;30;20076;-79
2022/12/14 14:09:33;;;;;;;13.95;5.95;;;-0.80;99.90;;;;;;4714971;30;20060;-79
2022/12/14 14:12:20;;;;;;;23.67;9.02;;;-0.50;99.90;;;;;;4732782;30;20061;-79
2022/12/14 14:14:54;;;;;;;26.20;10.85;;;-0.50;99.90;;;;;;4738437;30;20049;-79
2022/12/14 14:17:43;;;;;;;25.20;9.10;;;-1.10;99.90;;;;;;4728365;30;20052;-79
2022/12/14 14:20:35;;;;;;;25.10;10.00;;;-1.20;99.90;;;;;;4725147;30;20107;-79
2022/12/14 14:23:15;;;;;;;27.60;11.70;;;-0.50;99.90;;;;;;4729780;30;20041;-79
2022/12/14 14:25:50;;;;;;;15.10;5.97;;;0.70;99.90;;;;;;4746886;30;20057;-79
2022/12/14 14:28:21;;;;;;;52.58;16.48;;;-0.50;99.90;;;;;;4725108;30;20082;-79
2022/12/14 14:30:56;;;;;;;242.82;81.38;;;-0.60;99.90;;;;;;4725680;30;20060;-78
2022/12/14 14:33:38;;;;;;;55.78;17.00;;;-0.50;99.90;;;;;;4736712;30;20057;-79
2022/12/14 14:36:34;;;;;;;44.30;14.65;;;-0.10;99.90;;;;;;4733660;30;20061;-79
2022/12/14 14:39:23;;;;;;;19.95;7.47;;;-0.50;99.90;;;;;;4723717;30;20098;-79
2022/12/14 14:42:21;;;;;;;20.20;9.70;;;-0.70;99.90;;;;;;4737884;30;20486;-79
2022/12/14 14:45:17;;;;;;;30.08;12.40;;;-0.40;99.90;;;;;;4724145;30;20052;-79